OEJN/JED METAR and TAF weather

Enter ICAO airport designator
Station Type Date Time Source
OEJN METAR 2020/01/23 06:00 UTC NOAA

OEJN 230600Z 07012KT CAVOK 19/03 Q1019 NOSIG


Station Type Date Time Source
OEJN Decoded METAR 2020/01/23 06:00 UTC NOAA

Jeddah King Abdul Aziz International Airport , Saudi Arabia (OEJN) 21-42N 039-11E 17M
Jan 23, 2020 - 01:00 AM EST / 2020.01.23 0600 UTC
Wind: from the ENE (070 degrees) at 14 MPH (12 KT):0
Visibility: greater than 7 mile(s):0
Temperature: 66 F (19 C)
Dew Point: 37 F (3 C)
Relative Humidity: 34%
Pressure (altimeter): 30.09 in. Hg (1019 hPa)
ob: OEJN 230600Z 07012KT CAVOK 19/03 Q1019 NOSIG
cycle: 6

Station Type Date Time Source
OEJN TAF 2020/01/23 06:06 UTC NOAA

TAF OEJN 230500Z 2306/2412 33006G16KT 8000 FEW040
BECMG 2318/2320 03008KT

Example: see airport list